Terminal Aerodrome Forecast
Issued by NWS Portland, OR

Home | Current Version | Previous Version | Text Only | Print | Product List | Glossary On
Versions: 1 2 3 4 5 6 7 8 9 10 11 12 13 14 15
000
FTUS46 KPQR 271746
TAFTTD
TAF
KTTD 271746Z 2718/2818 VRB04KT P6SM OVC020
     FM272200 28005KT P6SM SKC
     FM280900 27002KT P6SM BKN015=

USA.gov is the U.S. government's official web portal to all federal, state and local government web resources and services.